Time;durP1;ratioP1;P1;durP2;ratioP2;P2;SDS_P1;SDS_P2;PMS_P1;PMS_P2;Temp;Humidity;BMP_temperature;BMP_pressure;BME280_temperature;BME280_humidity;BME280_pressure;Samples;Min_cycle;Max_cycle;Signal;HPM_P1;HPM_P2
2022/09/02 00:01:33;;;;;;;4.07;3.90;;;;;;;11.77;94.25;102303.88;5014042;28;20476;-50
2022/09/02 00:04:05;;;;;;;6.10;5.60;;;;;;;11.72;94.45;102300.84;5013985;28;20941;-47
2022/09/02 00:06:33;;;;;;;4.93;4.63;;;;;;;11.66;94.43;102305.84;5013678;28;20488;-45
2022/09/02 00:09:03;;;;;;;4.40;4.10;;;;;;;11.60;94.63;102302.97;5014198;28;20433;-46
2022/09/02 00:11:32;;;;;;;7.33;5.30;;;;;;;11.55;94.42;102306.16;5013877;28;20997;-44
2022/09/02 00:14:03;;;;;;;5.53;5.13;;;;;;;11.49;94.88;102296.13;5013782;28;20429;-44
2022/09/02 00:16:32;;;;;;;5.00;4.50;;;;;;;11.45;95.19;102299.28;5027311;23;20592;-44
2022/09/02 00:19:01;;;;;;;5.73;5.23;;;;;;;11.43;95.50;102303.97;5014295;28;20465;-41
2022/09/02 00:21:31;;;;;;;4.60;4.40;;;;;;;11.41;96.19;102298.78;5014538;28;20969;-38
2022/09/02 00:23:59;;;;;;;4.00;3.70;;;;;;;11.38;96.50;102288.41;5013808;28;20433;-39
2022/09/02 00:26:27;;;;;;;3.80;3.50;;;;;;;11.38;97.16;102288.41;5013089;28;21005;-40
2022/09/02 00:28:55;;;;;;;3.07;2.87;;;;;;;11.41;97.14;102281.94;5013588;28;20429;-39
2022/09/02 00:31:23;;;;;;;3.20;3.10;;;;;;;11.42;97.69;102275.56;5013537;28;20433;-41
2022/09/02 00:33:52;;;;;;;3.13;3.03;;;;;;;11.42;97.94;102279.09;5013580;28;20441;-42
2022/09/02 00:36:20;;;;;;;3.40;3.20;;;;;;;11.44;98.52;102278.94;5013253;28;20543;-42
2022/09/02 00:38:49;;;;;;;2.87;2.77;;;;;;;11.45;98.54;102277.91;5013606;28;20429;-43
2022/09/02 00:41:20;;;;;;;3.20;3.00;;;;;;;11.43;98.60;102279.94;5013532;28;20447;-41
2022/09/02 00:43:51;;;;;;;3.60;3.30;;;;;;;11.38;98.27;102285.75;5013055;28;20531;-41
2022/09/02 00:46:21;;;;;;;2.80;2.70;;;;;;;11.35;98.33;102285.25;5012271;28;20467;-41
2022/09/02 00:48:55;;;;;;;3.00;2.80;;;;;;;11.32;98.43;102280.25;5013399;28;20528;-41
2022/09/02 00:51:24;;;;;;;3.47;3.37;;;;;;;11.28;98.55;102277.06;5013282;28;20535;-41
2022/09/02 00:53:53;;;;;;;3.23;2.83;;;;;;;11.23;98.50;102284.72;5021014;28;20429;-41
2022/09/02 00:56:25;;;;;;;3.20;3.10;;;;;;;11.21;98.55;102291.22;5030574;28;20468;-42
2022/09/02 00:58:53;;;;;;;2.63;2.53;;;;;;;11.20;98.70;102284.22;5033106;28;20435;-41
2022/09/02 01:01:21;;;;;;;3.33;3.13;;;;;;;11.18;98.77;102281.69;5032844;28;20551;-41
2022/09/02 01:03:50;;;;;;;3.37;3.07;;;;;;;11.16;98.62;102285.53;5032753;28;20434;-41
2022/09/02 01:06:26;;;;;;;3.00;2.80;;;;;;;11.13;98.53;102285.88;5032139;28;20471;-41
2022/09/02 01:08:58;;;;;;;3.00;2.90;;;;;;;11.10;98.37;102276.34;5032681;28;20432;-42
2022/09/02 01:11:30;;;;;;;3.20;3.10;;;;;;;11.06;98.47;102275.84;5032928;28;20432;-41
2022/09/02 01:14:00;;;;;;;3.50;3.30;;;;;;;11.05;98.71;102276.81;5032333;28;21092;-41
2022/09/02 01:16:33;;;;;;;3.70;3.43;;;;;;;11.04;98.63;102274.34;5031756;28;20472;-40
2022/09/02 01:19:06;;;;;;;3.30;3.10;;;;;;;11.01;98.75;102275.50;5032499;28;20424;-43
2022/09/02 01:21:34;;;;;;;3.70;3.60;;;;;;;10.99;98.61;102276.66;5032508;28;20443;-42
2022/09/02 01:24:04;;;;;;;3.30;3.20;;;;;;;11.03;99.22;102267.31;5032363;28;20439;-40
2022/09/02 01:26:32;;;;;;;3.30;3.10;;;;;;;11.00;98.92;102259.63;5031716;28;20993;-41
2022/09/02 01:29:00;;;;;;;3.30;3.10;;;;;;;11.01;99.54;102271.97;5032336;28;20432;-40
2022/09/02 01:31:27;;;;;;;3.30;3.10;;;;;;;11.00;99.66;102267.63;5032212;28;20443;-41
2022/09/02 01:33:56;;;;;;;3.33;3.23;;;;;;;10.95;99.12;102265.47;5031835;28;21113;-43
2022/09/02 01:36:24;;;;;;;3.57;3.40;;;;;;;10.92;99.47;102268.47;5031501;28;20510;-41
2022/09/02 01:38:52;;;;;;;3.50;3.30;;;;;;;10.90;99.28;102269.63;5032434;28;20434;-40
2022/09/02 01:41:21;;;;;;;3.50;3.30;;;;;;;10.88;99.48;102277.78;5032272;28;20806;-40
2022/09/02 01:43:49;;;;;;;3.53;3.33;;;;;;;10.84;99.45;102276.41;5031979;28;20964;-40
2022/09/02 01:46:16;;;;;;;3.43;3.13;;;;;;;10.81;99.66;102278.59;5031405;28;20474;-40
2022/09/02 01:48:44;;;;;;;3.10;3.00;;;;;;;10.79;99.71;102272.56;5031924;28;20472;-40
2022/09/02 01:51:16;;;;;;;4.30;3.90;;;;;;;10.76;99.69;102264.88;5031871;28;20953;-40
2022/09/02 01:53:44;;;;;;;3.43;3.33;;;;;;;10.73;99.57;102271.38;5013167;28;20911;-41
2022/09/02 01:56:12;;;;;;;2.97;2.87;;;;;;;10.72;99.96;102263.53;5028214;28;20464;-41
2022/09/02 01:58:41;;;;;;;4.00;3.70;;;;;;;10.70;100.00;102262.84;5031159;28;20948;-40
2022/09/02 02:01:10;;;;;;;6.00;3.63;;;;;;;10.69;100.00;102270.03;5032006;28;20438;-41
2022/09/02 02:03:38;;;;;;;3.90;3.60;;;;;;;10.69;100.00;102266.53;5031449;28;20507;-40
2022/09/02 02:06:09;;;;;;;3.30;3.20;;;;;;;10.68;100.00;102267.53;5031274;28;20471;-42
2022/09/02 02:08:38;;;;;;;3.90;3.63;;;;;;;10.67;100.00;102257.84;5031788;28;20478;-40
2022/09/02 02:11:06;;;;;;;3.27;3.17;;;;;;;10.63;100.00;102257.34;5031681;28;20432;-41
2022/09/02 02:13:34;;;;;;;3.33;3.10;;;;;;;10.60;100.00;102252.31;5031394;28;20428;-41
2022/09/02 02:16:04;;;;;;;3.33;3.23;;;;;;;10.57;100.00;102257.97;5031071;28;20915;-41
2022/09/02 02:18:31;;;;;;;3.30;3.10;;;;;;;10.52;99.96;102257.59;5031956;28;20519;-40
2022/09/02 02:20:59;;;;;;;3.97;3.77;;;;;;;10.50;100.00;102256.94;5032070;28;20436;-40
2022/09/02 02:23:26;;;;;;;3.47;3.30;;;;;;;10.47;99.90;102263.44;5031560;28;20428;-40
2022/09/02 02:25:54;;;;;;;3.50;3.40;;;;;;;10.43;100.00;102253.22;5031198;28;20474;-41
2022/09/02 02:28:22;;;;;;;2.90;2.80;;;;;;;10.38;99.87;102261.72;5031604;28;20994;-40
2022/09/02 02:30:49;;;;;;;3.50;3.40;;;;;;;10.34;99.86;102254.16;5031788;28;20432;-40
2022/09/02 02:33:18;;;;;;;2.83;2.63;;;;;;;10.29;99.61;102256.47;5031253;28;20436;-40
2022/09/02 02:35:46;;;;;;;3.20;3.10;;;;;;;10.21;99.59;102251.94;5031200;28;20518;-40
2022/09/02 02:38:14;;;;;;;3.77;3.57;;;;;;;10.17;99.58;102255.06;5031451;28;20429;-40
2022/09/02 02:40:42;;;;;;;3.47;3.27;;;;;;;10.09;99.48;102261.16;5031572;28;20440;-40
2022/09/02 02:43:10;;;;;;;3.57;3.37;;;;;;;10.04;99.50;102260.78;5031544;28;20432;-42
2022/09/02 02:45:37;;;;;;;3.50;3.20;;;;;;;9.97;99.33;102267.75;5030933;28;20471;-40
2022/09/02 02:48:06;;;;;;;3.70;3.60;;;;;;;9.92;99.44;102264.69;5031188;28;20988;-40
2022/09/02 02:50:35;;;;;;;3.20;3.10;;;;;;;9.88;99.70;102261.53;5031308;28;20440;-40
2022/09/02 02:53:03;;;;;;;3.50;3.30;;;;;;;9.85;99.83;102255.66;5023185;28;20936;-40
2022/09/02 02:55:30;;;;;;;3.50;3.30;;;;;;;9.85;100.00;102253.00;5022678;28;20471;-40
2022/09/02 02:57:58;;;;;;;3.77;3.47;;;;;;;9.82;100.00;102258.63;5031388;28;20451;-42
2022/09/02 03:00:28;;;;;;;3.47;3.27;;;;;;;9.80;100.00;102255.28;5031246;28;20970;-40
2022/09/02 03:02:56;;;;;;;3.47;3.27;;;;;;;9.77;100.00;102260.91;5031045;28;20428;-40
2022/09/02 03:05:25;;;;;;;3.80;3.63;;;;;;;9.71;100.00;102261.53;5030636;28;20969;-41
2022/09/02 03:07:54;;;;;;;3.13;3.03;;;;;;;9.67;100.00;102254.84;5031202;28;20475;-40
2022/09/02 03:10:23;;;;;;;3.47;3.27;;;;;;;9.61;100.00;102253.63;5034476;28;20434;-43
2022/09/02 03:12:51;;;;;;;3.00;2.90;;;;;;;9.58;100.00;102258.44;5034612;28;20435;-40
2022/09/02 03:15:21;;;;;;;3.63;3.43;;;;;;;9.53;100.00;102261.53;5034339;28;20495;-40
2022/09/02 03:17:48;;;;;;;4.20;3.90;;;;;;;9.50;100.00;102258.38;5034422;28;20563;-41
2022/09/02 03:20:18;;;;;;;3.50;3.40;;;;;;;9.47;100.00;102253.34;5034696;28;20443;-40
2022/09/02 03:22:49;;;;;;;3.57;3.37;;;;;;;9.43;100.00;102252.81;5034573;28;20450;-40
2022/09/02 03:25:20;;;;;;;4.13;3.83;;;;;;;9.40;100.00;102248.63;5034235;28;20490;-40
2022/09/02 03:27:49;;;;;;;3.63;3.43;;;;;;;9.37;100.00;102243.63;5034366;28;20452;-43
2022/09/02 03:30:19;;;;;;;3.20;3.10;;;;;;;9.35;100.00;102245.56;5034489;28;20436;-39
2022/09/02 03:32:47;;;;;;;3.30;3.10;;;;;;;9.33;100.00;102250.22;5034478;28;20429;-40
2022/09/02 03:35:17;;;;;;;3.40;3.30;;;;;;;9.31;100.00;102240.72;5034081;28;20452;-40
2022/09/02 03:37:46;;;;;;;3.13;3.03;;;;;;;9.29;100.00;102237.34;5034357;28;20452;-40
2022/09/02 03:40:18;;;;;;;3.70;3.50;;;;;;;9.26;100.00;102235.84;5034470;28;20436;-40
2022/09/02 03:42:48;;;;;;;3.80;3.50;;;;;;;9.23;100.00;102235.28;5033990;28;20789;-40
2022/09/02 03:45:17;;;;;;;4.07;3.87;;;;;;;9.18;100.00;102230.44;5034223;28;20472;-41
2022/09/02 03:47:50;;;;;;;3.37;3.27;;;;;;;9.16;100.00;102234.25;5034110;28;20504;-40
2022/09/02 03:50:19;;;;;;;3.50;3.40;;;;;;;9.12;100.00;102230.19;5034100;28;20436;-40
2022/09/02 03:52:46;;;;;;;3.87;3.57;;;;;;;9.11;100.00;102236.53;5025921;28;21015;-40
2022/09/02 03:55:14;;;;;;;3.70;3.50;;;;;;;9.07;100.00;102236.00;5025391;28;20463;-40
2022/09/02 03:57:42;;;;;;;3.80;3.70;;;;;;;9.05;100.00;102231.81;5034118;28;20447;-45
2022/09/02 04:00:13;;;;;;;4.27;3.97;;;;;;;9.04;100.00;102230.13;5034083;28;20429;-41
2022/09/02 04:02:41;;;;;;;3.83;3.63;;;;;;;9.02;100.00;102229.44;5033884;28;20779;-40
2022/09/02 04:05:13;;;;;;;3.20;3.10;;;;;;;9.00;100.00;102228.75;5033604;28;20468;-40
2022/09/02 04:07:43;;;;;;;3.60;3.50;;;;;;;8.96;100.00;102225.53;5033789;28;20476;-40
2022/09/02 04:10:14;;;;;;;3.67;3.47;;;;;;;8.92;100.00;102221.53;5033917;28;20491;-40
2022/09/02 04:12:42;;;;;;;3.60;3.40;;;;;;;8.91;100.00;102222.50;5033510;28;20443;-40
2022/09/02 04:15:12;;;;;;;3.53;3.33;;;;;;;8.88;100.00;102231.63;5033366;28;20467;-45
2022/09/02 04:17:41;;;;;;;3.90;3.60;;;;;;;8.88;100.00;102228.97;5033513;28;20463;-40
2022/09/02 04:20:12;;;;;;;3.20;3.10;;;;;;;8.88;100.00;102225.44;5032825;28;20949;-40
2022/09/02 04:22:40;;;;;;;3.23;3.03;;;;;;;8.89;100.00;102237.78;5033092;28;20428;-40
2022/09/02 04:25:09;;;;;;;4.33;4.07;;;;;;;8.89;100.00;102222.66;5033227;28;20464;-39
2022/09/02 04:27:36;;;;;;;4.50;4.30;;;;;;;8.95;100.00;102223.88;5033254;28;20995;-41
2022/09/02 04:30:06;;;;;;;4.10;3.90;;;;;;;8.98;100.00;102231.56;5033495;28;20472;-38
2022/09/02 04:32:36;;;;;;;4.67;4.43;;;;;;;9.06;100.00;102225.47;5033499;28;20910;-40
2022/09/02 04:35:08;;;;;;;5.60;5.20;;;;;;;9.13;100.00;102224.75;5032882;28;20452;-40
2022/09/02 04:37:35;;;;;;;5.37;4.97;;;;;;;9.23;100.00;102229.97;5033065;28;20787;-40
2022/09/02 04:40:03;;;;;;;6.23;5.70;;;;;;;9.30;100.00;102231.88;5033321;28;20438;-40
2022/09/02 04:42:32;;;;;;;5.33;5.03;;;;;;;9.37;100.00;102222.31;5033029;28;20468;-40
2022/09/02 04:45:00;;;;;;;5.73;5.37;;;;;;;9.47;100.00;102224.88;5032654;28;20479;-41
2022/09/02 04:47:27;;;;;;;6.87;6.27;;;;;;;9.56;100.00;102223.13;5032882;28;20459;-40
2022/09/02 04:49:57;;;;;;;8.63;6.60;;;;;;;9.64;100.00;102217.88;5032866;28;20476;-40
2022/09/02 04:52:25;;;;;;;6.30;6.00;;;;;;;9.73;100.00;102227.59;5025100;28;20436;-41
2022/09/02 04:54:53;;;;;;;7.60;7.03;;;;;;;9.81;100.00;102219.66;5024238;28;20807;-40
2022/09/02 04:57:21;;;;;;;7.47;6.50;;;;;;;9.93;100.00;102221.06;5032831;28;20448;-40
2022/09/02 04:59:48;;;;;;;6.27;5.87;;;;;;;10.02;100.00;102222.81;5032788;28;20432;-40
2022/09/02 05:02:17;;;;;;;6.13;5.73;;;;;;;10.15;100.00;102227.75;5032410;28;20442;-41
2022/09/02 05:04:45;;;;;;;6.67;6.00;;;;;;;10.36;100.00;102231.69;5032576;28;20526;-41
2022/09/02 05:07:14;;;;;;;6.30;5.80;;;;;;;10.69;100.00;102234.50;5032627;28;20456;-41
2022/09/02 05:09:42;;;;;;;5.93;5.53;;;;;;;11.34;100.00;102230.16;5032658;28;20475;-40
2022/09/02 05:12:10;;;;;;;6.03;5.47;;;;;;;12.63;100.00;102221.97;5032442;28;20798;-41
2022/09/02 05:14:38;;;;;;;5.53;5.13;;;;;;;13.82;100.00;102229.38;5031996;28;20479;-41
2022/09/02 05:17:05;;;;;;;5.37;5.07;;;;;;;14.85;100.00;102229.41;5032227;28;20460;-41
2022/09/02 05:19:34;;;;;;;5.70;5.30;;;;;;;15.83;100.00;102233.09;5032688;28;20857;-41
2022/09/02 05:22:03;;;;;;;5.20;4.87;;;;;;;16.72;100.00;102227.91;5032331;28;20424;-42
2022/09/02 05:24:32;;;;;;;4.97;4.70;;;;;;;17.51;95.53;102234.31;5031807;28;20428;-42
2022/09/02 05:27:00;;;;;;;4.80;4.60;;;;;;;18.33;88.42;102232.00;5032173;28;20455;-41
2022/09/02 05:29:28;;;;;;;4.87;4.63;;;;;;;19.00;82.42;102225.31;5032037;28;20474;-41
2022/09/02 05:31:56;;;;;;;5.03;4.77;;;;;;;19.76;78.02;102226.91;5032291;28;20432;-42
2022/09/02 05:34:24;;;;;;;5.07;4.77;;;;;;;20.48;73.13;102221.84;5031448;28;20959;-41
2022/09/02 05:36:51;;;;;;;4.60;4.40;;;;;;;21.13;69.72;102231.03;5032121;28;20466;-41
2022/09/02 05:39:19;;;;;;;4.57;4.30;;;;;;;21.65;66.46;102221.28;5032049;28;20435;-40
2022/09/02 05:41:48;;;;;;;4.67;4.43;;;;;;;22.17;63.01;102220.38;5032624;28;20532;-41
2022/09/02 05:44:15;;;;;;;5.07;4.77;;;;;;;22.75;61.94;102227.63;5031982;28;20813;-41
2022/09/02 05:46:43;;;;;;;4.60;4.40;;;;;;;23.13;58.67;102217.75;5031720;28;20513;-42
2022/09/02 05:49:17;;;;;;;4.70;4.50;;;;;;;23.54;56.32;102226.66;5031888;28;20576;-39
2022/09/02 05:51:46;;;;;;;4.77;4.57;;;;;;;24.11;55.49;102221.88;5027680;28;20439;-39
2022/09/02 05:54:16;;;;;;;4.33;4.07;;;;;;;24.52;53.41;102217.81;5021309;28;20933;-40
2022/09/02 05:56:47;;;;;;;3.87;3.67;;;;;;;24.88;52.42;102216.34;5032176;28;20509;-39
2022/09/02 05:59:17;;;;;;;3.97;3.77;;;;;;;25.26;50.35;102221.66;5032077;28;20428;-40
2022/09/02 06:01:45;;;;;;;4.33;4.13;;;;;;;25.76;49.84;102213.09;5031880;28;20434;-39
2022/09/02 06:04:13;;;;;;;3.60;3.40;;;;;;;26.18;47.94;102204.91;5031665;28;20431;-41
2022/09/02 06:06:42;;;;;;;3.90;3.70;;;;;;;26.32;46.28;102211.53;5031159;28;20810;-40
2022/09/02 06:09:11;;;;;;;3.47;3.27;;;;;;;26.45;45.93;102199.31;5031815;28;20439;-41
2022/09/02 06:11:45;;;;;;;4.10;3.90;;;;;;;26.81;45.60;102218.34;5031997;28;20427;-40
2022/09/02 06:14:14;;;;;;;3.10;2.90;;;;;;;26.78;44.01;102207.91;5031600;28;20426;-40
2022/09/02 06:16:43;;;;;;;2.90;2.80;;;;;;;26.69;42.47;102203.22;5030978;28;20825;-45
2022/09/02 06:19:12;;;;;;;3.10;3.00;;;;;;;27.04;43.77;102208.00;5031455;28;20446;-45
2022/09/02 06:21:46;;;;;;;3.27;3.07;;;;;;;27.15;41.76;102213.22;5031860;28;20536;-42
2022/09/02 06:24:14;;;;;;;3.60;3.40;;;;;;;27.18;42.67;102206.41;5031470;28;20431;-43
2022/09/02 06:26:42;;;;;;;3.20;2.90;;;;;;;27.39;41.66;102211.59;5031412;28;20451;-41
2022/09/02 06:29:10;;;;;;;3.30;3.00;;;;;;;27.32;36.67;102212.97;5031434;28;20439;-43
2022/09/02 06:31:41;;;;;;;3.03;2.93;;;;;;;27.44;42.00;102202.59;5031818;28;20446;-44
2022/09/02 06:34:12;;;;;;;3.33;3.13;;;;;;;27.20;39.85;102204.19;5031678;28;20200;-42
2022/09/02 06:36:41;;;;;;;3.40;3.10;;;;;;;27.03;39.27;102209.91;5031044;28;20467;-43
2022/09/02 06:39:11;;;;;;;3.10;2.90;;;;;;;27.04;41.08;102216.22;5031634;28;20442;-44
2022/09/02 06:41:41;;;;;;;3.27;3.10;;;;;;;26.78;41.92;102213.38;5031429;28;20932;-43
2022/09/02 06:44:10;;;;;;;2.90;2.80;;;;;;;26.85;41.76;102208.50;5032473;28;20967;-42
2022/09/02 06:46:44;;;;;;;2.97;2.87;;;;;;;26.89;40.03;102211.53;5034940;28;20470;-44
2022/09/02 06:49:15;;;;;;;2.83;2.63;;;;;;;26.48;41.68;102217.91;5035671;28;20431;-44
2022/09/02 06:51:44;;;;;;;3.47;3.27;;;;;;;26.36;40.85;102218.13;5031092;28;20472;-43
2022/09/02 06:54:14;;;;;;;2.80;2.30;;;;;;;26.07;40.54;102211.38;5023731;28;20447;-45
2022/09/02 06:56:43;;;;;;;2.63;2.43;;;;;;;26.17;41.88;102222.41;5034852;28;20502;-42
2022/09/02 06:59:16;;;;;;;3.00;2.80;;;;;;;25.77;41.92;102217.47;5035286;28;20438;-45
2022/09/02 07:01:44;;;;;;;3.00;2.90;;;;;;;25.81;40.87;102218.59;5035191;28;20428;-42
2022/09/02 07:06:59;;;;;;;3.10;2.80;;;;;;;25.86;43.09;102219.44;5034684;28;20619;-42
2022/09/02 07:09:29;;;;;;;2.77;2.67;;;;;;;25.56;42.01;102219.22;5034833;28;20446;-41
2022/09/02 07:11:59;;;;;;;3.53;2.87;;;;;;;25.41;41.97;102223.69;5035043;28;20442;-42
2022/09/02 07:14:35;;;;;;;3.03;2.80;;;;;;;24.79;41.42;102216.75;5034594;28;20431;-42
2022/09/02 07:17:03;;;;;;;3.47;2.90;;;;;;;24.87;42.93;102220.16;5034691;28;20463;-43
2022/09/02 07:19:32;;;;;;;3.97;3.20;;;;;;;24.59;42.75;102218.41;5034642;28;20534;-42
2022/09/02 07:22:00;;;;;;;3.47;3.37;;;;;;;23.56;42.95;102221.81;5034539;28;20427;-41
2022/09/02 07:24:27;;;;;;;3.67;3.47;;;;;;;23.51;44.19;102221.69;5034236;28;20431;-41
2022/09/02 07:26:55;;;;;;;3.90;2.90;;;;;;;23.25;44.33;102219.59;5034615;28;20467;-42
2022/09/02 07:29:23;;;;;;;5.53;2.90;;;;;;;22.76;45.07;102221.13;5034600;28;20796;-40
2022/09/02 07:31:51;;;;;;;3.17;2.97;;;;;;;22.29;45.21;102220.34;5034769;28;20478;-41
2022/09/02 07:34:19;;;;;;;3.10;3.00;;;;;;;21.82;46.65;102214.91;5033705;28;20806;-41
2022/09/02 07:36:48;;;;;;;3.20;3.10;;;;;;;21.55;47.37;102215.59;5034274;28;20466;-41
2022/09/02 07:39:17;;;;;;;3.17;3.07;;;;;;;21.06;48.61;102214.81;5034607;28;20431;-40
2022/09/02 07:41:47;;;;;;;3.67;3.00;;;;;;;20.64;50.01;102224.75;5034335;28;20435;-41
2022/09/02 07:44:16;;;;;;;3.50;3.30;;;;;;;20.57;50.63;102217.78;5034217;28;20438;-41
2022/09/02 07:46:44;;;;;;;3.27;3.17;;;;;;;20.74;50.15;102216.94;5033925;28;20463;-44
2022/09/02 07:49:14;;;;;;;3.27;3.17;;;;;;;20.33;51.35;102212.22;5034362;28;20428;-44
2022/09/02 07:51:45;;;;;;;3.63;3.53;;;;;;;20.42;50.78;102210.03;5030228;28;20476;-43
2022/09/02 07:54:14;;;;;;;3.23;3.13;;;;;;;20.77;50.48;102210.22;5022683;28;20723;-40
2022/09/02 07:56:42;;;;;;;3.77;3.57;;;;;;;21.13;49.74;102206.63;5032181;28;20463;-42
2022/09/02 07:59:10;;;;;;;3.13;2.97;;;;;;;21.33;48.50;102207.16;5033806;28;20455;-42
2022/09/02 08:01:38;;;;;;;3.50;3.40;;;;;;;21.42;49.25;102203.03;5033969;28;20435;-44
2022/09/02 08:04:06;;;;;;;3.13;2.97;;;;;;;21.72;48.43;102208.41;5033624;28;20494;-41
2022/09/02 08:06:33;;;;;;;3.20;3.10;;;;;;;21.72;47.75;102214.66;5033270;28;20475;-41
2022/09/02 08:09:03;;;;;;;3.10;2.90;;;;;;;21.65;47.23;102215.84;5033832;28;20802;-41
2022/09/02 08:11:32;;;;;;;3.87;3.53;;;;;;;21.51;47.76;102210.63;5033708;28;20475;-42
2022/09/02 08:14:01;;;;;;;3.20;2.90;;;;;;;21.52;47.89;102203.31;5033625;28;20424;-41
2022/09/02 08:16:28;;;;;;;2.70;2.60;;;;;;;21.63;48.01;102207.91;5033035;28;20837;-40
2022/09/02 08:18:56;;;;;;;3.03;2.77;;;;;;;21.34;48.07;102200.69;5033687;28;20431;-41
2022/09/02 08:21:25;;;;;;;3.03;2.83;;;;;;;21.19;47.50;102208.41;5033685;28;20558;-40
2022/09/02 08:23:52;;;;;;;3.23;3.00;;;;;;;20.98;47.60;102202.44;5033261;28;20434;-40
2022/09/02 08:26:20;;;;;;;3.13;2.77;;;;;;;20.92;47.98;102202.50;5032912;28;20474;-41
2022/09/02 08:28:51;;;;;;;2.73;2.63;;;;;;;20.80;48.37;102204.34;5033363;28;20489;-42
2022/09/02 08:31:19;;;;;;;2.60;2.50;;;;;;;20.66;48.39;102197.44;5033456;28;20827;-40
2022/09/02 08:33:46;;;;;;;2.80;2.70;;;;;;;20.74;48.62;102197.13;5033305;28;20793;-42
2022/09/02 08:36:14;;;;;;;3.33;3.17;;;;;;;20.90;48.81;102200.03;5032730;28;20470;-43
2022/09/02 08:38:43;;;;;;;2.93;2.83;;;;;;;21.21;48.90;102206.28;5033554;28;20805;-42
2022/09/02 08:41:21;;;;;;;3.57;3.47;;;;;;;21.50;46.62;102195.38;5033377;28;20437;-42
2022/09/02 08:43:51;;;;;;;3.40;3.30;;;;;;;21.84;45.72;102199.19;5033089;28;20441;-42
2022/09/02 08:46:24;;;;;;;2.93;2.83;;;;;;;21.70;45.49;102202.38;5032766;28;20470;-41
2022/09/02 08:48:55;;;;;;;2.93;2.83;;;;;;;21.53;45.68;102197.63;5033025;28;20428;-41
2022/09/02 08:51:28;;;;;;;2.87;2.77;;;;;;;21.55;44.14;102197.41;5031382;28;20471;-43
2022/09/02 08:54:07;;;;;;;3.00;2.80;;;;;;;21.66;44.85;102193.03;5021545;28;20435;-41
2022/09/02 08:56:35;;;;;;;2.83;2.73;;;;;;;21.70;44.89;102191.53;4993363;28;20472;-41
2022/09/02 08:59:05;;;;;;;3.07;2.97;;;;;;;21.58;45.02;102198.81;4993556;28;20437;-43
2022/09/02 09:01:43;;;;;;;2.87;2.77;;;;;;;21.68;44.74;102197.19;4993283;28;20939;-41
2022/09/02 09:04:23;;;;;;;2.63;2.53;;;;;;;21.42;43.87;102203.03;4993559;28;20433;-42
2022/09/02 09:07:06;;;;;;;2.93;2.83;;;;;;;21.39;43.17;102195.38;4992953;28;20441;-42
2022/09/02 09:09:45;;;;;;;3.33;3.03;;;;;;;21.51;43.47;102190.78;4993350;28;20843;-40
2022/09/02 09:12:21;;;;;;;3.23;3.13;;;;;;;21.47;42.88;102193.13;4992774;28;20496;-43
2022/09/02 09:14:56;;;;;;;3.43;3.33;;;;;;;21.56;43.48;102179.25;4992993;28;20465;-41
2022/09/02 09:17:30;;;;;;;3.07;2.97;;;;;;;21.43;44.00;102181.13;4993282;28;20803;-42
2022/09/02 09:20:02;;;;;;;3.37;3.27;;;;;;;21.68;42.59;102177.38;4993123;28;20448;-40
2022/09/02 09:22:36;;;;;;;3.30;3.10;;;;;;;21.67;41.28;102173.81;4992791;28;20456;-41
2022/09/02 09:25:10;;;;;;;2.97;2.80;;;;;;;21.56;40.96;102171.94;4992632;28;20489;-40
2022/09/02 09:27:38;;;;;;;3.33;3.13;;;;;;;21.78;42.03;102166.72;4992911;28;20460;-41
2022/09/02 09:30:10;;;;;;;3.30;3.20;;;;;;;21.47;40.75;102168.72;4993097;28;20434;-40
2022/09/02 09:32:46;;;;;;;3.27;3.07;;;;;;;21.63;40.53;102169.06;4992830;28;20886;-40
2022/09/02 09:35:14;;;;;;;2.80;2.70;;;;;;;21.61;40.94;102163.91;4992351;28;20473;-42
2022/09/02 09:37:44;;;;;;;2.70;2.60;;;;;;;21.69;40.34;102158.09;4992948;28;20442;-42
2022/09/02 09:40:25;;;;;;;4.73;2.90;;;;;;;21.86;40.17;102160.97;4993120;28;20440;-43
2022/09/02 09:42:56;;;;;;;2.97;2.77;;;;;;;22.02;38.62;102154.81;4993000;28;20776;-40
2022/09/02 09:45:32;;;;;;;2.83;2.73;;;;;;;21.84;38.29;102154.91;4992224;28;21017;-40
2022/09/02 09:48:29;;;;;;;3.20;3.10;;;;;;;21.75;38.13;102150.91;4992595;28;20532;-40
2022/09/02 09:51:17;;;;;;;3.30;3.10;;;;;;;21.75;37.99;102145.47;4991120;28;20508;-42
2022/09/02 09:53:46;;;;;;;3.10;3.00;;;;;;;21.89;38.33;102136.06;5013236;28;20440;-42
2022/09/02 09:56:35;;;;;;;2.83;2.73;;;;;;;21.80;39.00;102134.75;5028222;28;20466;-45
2022/09/02 09:59:07;;;;;;;3.20;3.10;;;;;;;21.84;38.70;102138.63;5028007;28;20439;-42
2022/09/02 10:01:37;;;;;;;3.03;2.93;;;;;;;21.77;37.95;102135.22;5031723;28;20966;-41
2022/09/02 10:04:08;;;;;;;3.13;3.03;;;;;;;21.71;37.65;102131.56;5031408;28;20886;-42
2022/09/02 10:06:55;;;;;;;2.97;2.77;;;;;;;21.81;38.84;102126.34;5031493;28;20478;-41
2022/09/02 10:09:33;;;;;;;3.63;3.30;;;;;;;21.91;37.60;102132.06;5031584;28;21231;-42
2022/09/02 10:12:03;;;;;;;3.10;2.90;;;;;;;21.68;37.46;102131.22;5031373;28;20992;-40
2022/09/02 10:14:37;;;;;;;2.60;2.50;;;;;;;21.96;37.98;102128.59;5030892;28;20927;-41
2022/09/02 10:17:32;;;;;;;2.80;2.70;;;;;;;22.06;38.33;102128.84;5031283;28;20829;-42
2022/09/02 10:20:07;;;;;;;3.20;3.10;;;;;;;22.17;40.41;102124.44;5031052;28;20485;-42
2022/09/02 10:23:08;;;;;;;2.77;2.67;;;;;;;22.07;40.53;102126.94;5031104;28;20462;-43
2022/09/02 10:25:45;;;;;;;3.50;2.90;;;;;;;21.94;39.83;102114.44;5026465;28;20534;-45
2022/09/02 10:28:26;;;;;;;2.90;2.80;;;;;;;22.14;39.94;102117.59;5031552;28;20428;-40
2022/09/02 10:31:05;;;;;;;2.70;2.50;;;;;;;22.14;38.89;102120.31;5031551;28;20440;-42
2022/09/02 10:33:44;;;;;;;3.00;2.80;;;;;;;21.72;40.35;102116.91;5031115;28;20483;-41
2022/09/02 10:36:19;;;;;;;3.10;2.90;;;;;;;21.91;41.07;102109.50;5031087;28;20478;-41
2022/09/02 10:38:51;;;;;;;2.93;2.77;;;;;;;21.86;40.33;102134.59;5031496;28;20510;-42
2022/09/02 10:41:33;;;;;;;2.97;2.80;;;;;;;21.96;40.58;102105.00;5031422;28;20431;-41
2022/09/02 10:44:19;;;;;;;2.70;2.60;;;;;;;22.09;40.94;102109.34;5031031;28;20979;-42
2022/09/02 10:46:55;;;;;;;3.37;3.00;;;;;;;22.12;42.25;102108.88;5031139;28;20443;-40
2022/09/02 10:49:43;;;;;;;3.23;3.03;;;;;;;22.15;41.57;102110.28;5031290;28;20509;-41
2022/09/02 10:52:28;;;;;;;3.20;3.10;;;;;;;21.94;42.33;102095.44;5022907;28;20491;-41
2022/09/02 10:55:06;;;;;;;3.00;2.90;;;;;;;22.00;41.00;102094.47;5022718;28;20463;-42
2022/09/02 10:57:44;;;;;;;2.70;2.60;;;;;;;21.80;41.28;102113.03;5031229;28;20447;-40
2022/09/02 11:00:15;;;;;;;3.47;2.87;;;;;;;22.12;40.69;102095.28;5031283;28;20435;-41
2022/09/02 11:02:47;;;;;;;3.13;2.93;;;;;;;21.90;41.00;102089.66;5031045;28;20786;-40
2022/09/02 11:05:20;;;;;;;3.17;2.97;;;;;;;22.05;41.53;102092.69;5030644;28;20464;-41
2022/09/02 11:07:55;;;;;;;3.00;2.90;;;;;;;22.20;41.29;102086.75;5031267;28;20534;-42
2022/09/02 11:10:29;;;;;;;3.20;3.10;;;;;;;22.15;40.83;102096.69;5031129;28;20434;-43
2022/09/02 11:13:01;;;;;;;3.00;2.80;;;;;;;22.49;39.92;102085.69;5030532;28;20466;-42
2022/09/02 11:15:41;;;;;;;3.23;3.03;;;;;;;22.68;38.75;102085.50;5030771;28;20451;-40
2022/09/02 11:18:18;;;;;;;4.50;2.90;;;;;;;22.84;39.36;102077.41;5031119;28;20435;-42
2022/09/02 11:20:54;;;;;;;4.00;2.80;;;;;;;22.71;38.34;102087.75;5031154;28;20435;-40
2022/09/02 11:23:29;;;;;;;3.13;3.03;;;;;;;22.60;39.10;102076.66;5030771;28;20428;-41
2022/09/02 11:26:03;;;;;;;3.20;3.00;;;;;;;22.31;38.36;102072.28;5030477;28;20459;-40
2022/09/02 11:28:39;;;;;;;2.90;2.70;;;;;;;22.59;38.23;102072.28;5030948;28;20441;-41
2022/09/02 11:31:21;;;;;;;3.20;3.00;;;;;;;22.54;39.26;102065.94;5033806;28;20486;-41
2022/09/02 11:33:55;;;;;;;2.90;2.70;;;;;;;22.32;38.96;102067.66;5034284;28;20474;-40
2022/09/02 11:36:25;;;;;;;2.80;2.70;;;;;;;22.54;38.90;102061.34;5033900;28;20471;-42
2022/09/02 11:39:06;;;;;;;3.47;3.17;;;;;;;22.51;38.83;102055.56;5034648;28;20477;-42
2022/09/02 11:41:53;;;;;;;3.57;3.37;;;;;;;22.44;38.02;102046.72;5034349;28;20458;-40
2022/09/02 11:44:51;;;;;;;3.13;3.03;;;;;;;22.17;38.23;102065.47;5033799;28;20424;-41